createdAt,value
2018-11-06T00:01:34.574Z,63.94
2018-11-06T00:04:02.675Z,64.06
2018-11-06T00:06:31.114Z,64.13
2018-11-06T00:08:59.213Z,64.08
2018-11-06T00:11:27.326Z,63.89
2018-11-06T00:13:55.429Z,63.75
2018-11-06T00:16:23.531Z,63.67
2018-11-06T00:18:51.626Z,63.54
2018-11-06T00:21:19.737Z,63.46
2018-11-06T00:23:47.830Z,63.35
2018-11-06T00:26:15.936Z,63.35
2018-11-06T00:28:44.037Z,63.27
2018-11-06T00:31:12.161Z,63.32
2018-11-06T00:33:40.261Z,63.36
2018-11-06T00:36:08.414Z,63.42
2018-11-06T00:38:36.683Z,63.48
2018-11-06T00:41:04.949Z,63.68
2018-11-06T00:43:33.052Z,63.83
2018-11-06T00:46:01.157Z,63.98
2018-11-06T00:48:29.253Z,64.13
2018-11-06T00:50:57.359Z,64.09
2018-11-06T00:53:25.449Z,64.18
2018-11-06T00:55:53.558Z,64.60
2018-11-06T00:58:21.646Z,64.77
2018-11-06T01:00:49.761Z,64.78
2018-11-06T01:03:17.857Z,64.62
2018-11-06T01:05:45.956Z,64.79
2018-11-06T01:08:14.062Z,65.01
2018-11-06T01:10:42.154Z,65.37
2018-11-06T01:13:10.259Z,65.84
2018-11-06T01:15:38.354Z,66.15
2018-11-06T01:18:06.438Z,66.55
2018-11-06T01:20:34.531Z,66.85
2018-11-06T01:23:02.624Z,67.18
2018-11-06T01:25:30.719Z,67.43
2018-11-06T01:27:58.822Z,67.47
2018-11-06T01:30:26.921Z,67.55
2018-11-06T01:32:55.017Z,67.61
2018-11-06T01:35:23.110Z,67.62
2018-11-06T01:37:51.257Z,67.87
2018-11-06T01:40:19.408Z,68.10
2018-11-06T01:42:48.111Z,68.21
2018-11-06T01:45:16.997Z,68.57
2018-11-06T01:47:45.104Z,68.92
2018-11-06T01:50:17.236Z,69.17
2018-11-06T01:52:46.503Z,69.25
2018-11-06T01:55:14.478Z,69.23
2018-11-06T01:57:42.583Z,69.25
2018-11-06T02:00:14.340Z,69.18
2018-11-06T02:02:42.527Z,69.12
2018-11-06T02:05:12.425Z,69.26
2018-11-06T02:07:41.106Z,69.28
2018-11-06T02:10:10.530Z,69.21
2018-11-06T02:12:38.632Z,69.10
2018-11-06T02:15:06.740Z,68.97
2018-11-06T02:17:34.839Z,68.84
2018-11-06T02:20:02.994Z,68.78
2018-11-06T02:22:31.081Z,68.68
2018-11-06T02:24:59.182Z,68.62
2018-11-06T02:27:27.288Z,68.42
2018-11-06T02:29:55.389Z,68.42
2018-11-06T02:32:23.563Z,68.80
2018-11-06T02:34:51.582Z,69.05
2018-11-06T02:37:19.673Z,69.16
2018-11-06T02:39:47.774Z,69.34
2018-11-06T02:42:15.865Z,69.46
2018-11-06T02:44:43.971Z,69.42
2018-11-06T02:47:12.065Z,69.44
2018-11-06T02:49:40.202Z,69.34
2018-11-06T02:52:08.306Z,69.35
2018-11-06T02:54:36.651Z,69.33
2018-11-06T02:57:04.746Z,69.18
2018-11-06T02:59:32.944Z,69.05
2018-11-06T03:02:01.034Z,68.96
2018-11-06T03:04:29.150Z,69.06
2018-11-06T03:06:57.244Z,69.24
2018-11-06T03:09:25.348Z,69.32
2018-11-06T03:11:53.459Z,69.23
2018-11-06T03:14:21.507Z,69.08
2018-11-06T03:16:49.824Z,68.98
2018-11-06T03:19:17.897Z,68.82
2018-11-06T03:21:45.990Z,68.62
2018-11-06T03:24:14.096Z,68.37
2018-11-06T03:26:42.256Z,68.57
2018-11-06T03:29:10.327Z,68.78
2018-11-06T03:31:38.441Z,68.92
2018-11-06T03:34:06.539Z,68.94
2018-11-06T03:36:34.803Z,68.89
2018-11-06T03:39:03.353Z,68.84
2018-11-06T03:41:31.405Z,68.81
2018-11-06T03:43:59.483Z,68.97
2018-11-06T03:46:27.574Z,69.09
2018-11-06T03:48:55.651Z,69.13
2018-11-06T03:51:23.739Z,69.33
2018-11-06T03:53:51.814Z,69.28
2018-11-06T03:56:19.903Z,69.28
2018-11-06T03:58:47.996Z,69.15
2018-11-06T04:01:16.084Z,69.03
2018-11-06T04:03:44.188Z,68.92
2018-11-06T04:06:12.279Z,68.56
2018-11-06T04:08:40.390Z,68.59
2018-11-06T04:11:08.745Z,68.58
2018-11-06T04:13:36.933Z,68.35
2018-11-06T04:16:05.020Z,68.15
2018-11-06T04:18:33.203Z,68.29
2018-11-06T04:21:01.486Z,68.37
2018-11-06T04:23:29.559Z,68.33
2018-11-06T04:25:57.648Z,68.44
2018-11-06T04:28:25.727Z,68.44
2018-11-06T04:30:53.829Z,68.42
2018-11-06T04:33:21.904Z,68.18
2018-11-06T04:35:49.981Z,68.31
2018-11-06T04:38:18.067Z,68.41
2018-11-06T04:40:46.198Z,68.27
2018-11-06T04:43:14.285Z,68.41
2018-11-06T04:45:42.388Z,68.46
2018-11-06T04:48:10.476Z,68.67
2018-11-06T04:50:38.555Z,68.90
2018-11-06T04:53:06.648Z,69.06
2018-11-06T04:55:34.727Z,69.25
2018-11-06T04:58:02.810Z,69.23
2018-11-06T05:00:30.891Z,68.94
2018-11-06T05:02:58.980Z,68.62
2018-11-06T05:05:27.091Z,68.66
2018-11-06T05:07:55.178Z,68.71
2018-11-06T05:10:23.264Z,68.63
2018-11-06T05:12:51.351Z,68.57
2018-11-06T05:15:19.429Z,68.36
2018-11-06T05:17:47.596Z,68.17
2018-11-06T05:20:16.905Z,68.14
2018-11-06T05:22:45.608Z,68.08
2018-11-06T05:25:14.006Z,67.91
2018-11-06T05:27:42.060Z,67.85
2018-11-06T05:30:11.052Z,68.06
2018-11-06T05:32:39.957Z,68.31
2018-11-06T05:35:08.632Z,68.60
2018-11-06T05:37:36.703Z,68.64
2018-11-06T05:40:16.225Z,68.69
2018-11-06T05:42:44.336Z,68.75
2018-11-06T05:45:12.421Z,69.04
2018-11-06T05:47:40.523Z,69.12
2018-11-06T05:50:08.613Z,69.08
2018-11-06T05:52:36.692Z,68.89
2018-11-06T05:55:05.005Z,68.88
2018-11-06T05:57:33.081Z,68.71
2018-11-06T06:00:01.171Z,68.87
2018-11-06T06:02:29.250Z,68.79
2018-11-06T06:04:57.342Z,69.00
2018-11-06T06:07:25.413Z,69.16
2018-11-06T06:09:53.506Z,69.11
2018-11-06T06:12:21.579Z,69.35
2018-11-06T06:14:49.675Z,69.56
2018-11-06T06:17:17.883Z,69.48
2018-11-06T06:19:45.843Z,69.35
2018-11-06T06:22:13.941Z,69.17
2018-11-06T06:24:42.039Z,69.02
2018-11-06T06:27:10.127Z,68.97
2018-11-06T06:29:38.227Z,68.89
2018-11-06T06:32:06.316Z,68.84
2018-11-06T06:34:34.528Z,68.91
2018-11-06T06:37:02.510Z,68.79
2018-11-06T06:39:30.674Z,68.87
2018-11-06T06:41:58.871Z,68.83
2018-11-06T06:44:26.870Z,68.84
2018-11-06T06:46:54.948Z,68.81
2018-11-06T06:49:23.042Z,68.30
2018-11-06T06:51:51.117Z,68.57
2018-11-06T06:54:19.385Z,68.63
2018-11-06T06:56:47.285Z,68.63
2018-11-06T06:59:15.366Z,68.52
2018-11-06T07:01:43.452Z,68.64
2018-11-06T07:04:11.625Z,68.71
2018-11-06T07:06:39.637Z,68.60
2018-11-06T07:09:08.888Z,68.49
2018-11-06T07:11:36.982Z,68.40
2018-11-06T07:14:05.237Z,68.07
2018-11-06T07:16:33.327Z,68.08
2018-11-06T07:19:01.406Z,68.26
2018-11-06T07:21:29.514Z,68.06
2018-11-06T07:23:57.626Z,68.02
2018-11-06T07:26:25.718Z,68.06
2018-11-06T07:28:53.848Z,68.19
2018-11-06T07:31:22.020Z,67.87
2018-11-06T07:33:50.105Z,68.14
2018-11-06T07:36:18.366Z,68.25
2018-11-06T07:38:46.447Z,68.16
2018-11-06T07:41:14.694Z,67.99
2018-11-06T07:43:42.695Z,67.35
2018-11-06T07:46:11.116Z,67.48
2018-11-06T07:48:39.191Z,67.63
2018-11-06T07:51:07.276Z,67.70
2018-11-06T07:53:35.370Z,67.90
2018-11-06T07:56:03.479Z,67.93
2018-11-06T07:58:31.518Z,68.15
2018-11-06T08:00:59.591Z,68.00
2018-11-06T08:03:27.683Z,67.81
2018-11-06T08:05:55.754Z,68.04
2018-11-06T08:08:23.838Z,68.12
2018-11-06T08:10:51.909Z,68.14
2018-11-06T08:13:19.997Z,68.01
2018-11-06T08:15:48.070Z,67.90
2018-11-06T08:18:16.153Z,67.82
2018-11-06T08:20:44.419Z,67.73
2018-11-06T08:23:12.395Z,67.69
2018-11-06T08:25:40.475Z,67.65
2018-11-06T08:28:08.561Z,67.74
2018-11-06T08:30:36.729Z,67.75
2018-11-06T08:33:04.839Z,67.70
2018-11-06T08:35:32.920Z,67.58
2018-11-06T08:38:01.042Z,67.39
2018-11-06T08:40:29.162Z,67.24
2018-11-06T08:42:57.246Z,67.10
2018-11-06T08:45:25.327Z,67.04
2018-11-06T08:47:53.417Z,66.89
2018-11-06T08:50:21.577Z,66.76
2018-11-06T08:52:49.657Z,66.69
2018-11-06T08:55:17.845Z,66.51
2018-11-06T08:57:46.140Z,66.27
2018-11-06T09:00:15.942Z,66.27
2018-11-06T09:02:45.021Z,66.23
2018-11-06T09:05:14.134Z,66.17
2018-11-06T09:07:42.234Z,66.10
2018-11-06T09:10:11.620Z,65.95
2018-11-06T09:12:40.089Z,65.85
2018-11-06T09:15:09.706Z,65.75
2018-11-06T09:17:38.281Z,65.69
2018-11-06T09:20:07.290Z,65.61
2018-11-06T09:22:35.379Z,65.49
2018-11-06T09:25:03.466Z,65.40
2018-11-06T09:27:31.537Z,65.20
2018-11-06T09:29:59.627Z,65.19
2018-11-06T09:32:27.703Z,65.11
2018-11-06T09:34:55.793Z,65.23
2018-11-06T09:37:23.867Z,65.22
2018-11-06T09:39:51.946Z,65.27
2018-11-06T09:42:20.023Z,65.32
2018-11-06T09:44:48.137Z,65.28
2018-11-06T09:47:16.190Z,65.25
2018-11-06T09:49:44.279Z,65.16
2018-11-06T09:52:12.356Z,65.05
2018-11-06T09:54:40.461Z,64.94
2018-11-06T09:57:08.526Z,64.76
2018-11-06T09:59:36.609Z,64.63
2018-11-06T10:02:05.027Z,64.50
2018-11-06T10:04:33.114Z,64.46
2018-11-06T10:07:01.401Z,64.36
2018-11-06T10:09:29.271Z,64.37
2018-11-06T10:11:57.346Z,64.32
2018-11-06T10:14:25.451Z,64.32
2018-11-06T10:16:53.526Z,64.23
2018-11-06T10:19:21.687Z,64.22
2018-11-06T10:21:49.789Z,64.22
2018-11-06T10:24:17.878Z,64.21
2018-11-06T10:26:45.982Z,64.21
2018-11-06T10:29:14.070Z,64.14
2018-11-06T10:31:42.167Z,63.95
2018-11-06T10:34:10.281Z,63.85
2018-11-06T10:36:38.367Z,63.68
2018-11-06T10:39:09.281Z,63.61
2018-11-06T10:41:37.567Z,63.51
2018-11-06T10:44:05.922Z,63.43
2018-11-06T10:46:34.019Z,63.41
2018-11-06T10:49:02.114Z,63.42
2018-11-06T10:51:30.300Z,63.36
2018-11-06T10:53:58.382Z,63.38
2018-11-06T10:56:26.502Z,63.33
2018-11-06T10:58:54.585Z,63.23
2018-11-06T11:01:28.176Z,63.26
2018-11-06T11:04:01.660Z,63.25
2018-11-06T11:06:29.794Z,63.28
2018-11-06T11:08:57.877Z,63.19
2018-11-06T11:11:25.999Z,63.09
2018-11-06T11:13:54.139Z,63.02
2018-11-06T11:16:22.233Z,63.02
2018-11-06T11:18:50.324Z,62.92
2018-11-06T11:21:18.429Z,62.77
2018-11-06T11:23:46.526Z,62.58
2018-11-06T11:26:14.624Z,62.63
2018-11-06T11:28:42.716Z,62.59
2018-11-06T11:31:10.814Z,62.54
2018-11-06T11:33:38.898Z,62.55
2018-11-06T11:36:06.989Z,62.54
2018-11-06T11:38:35.081Z,62.38
2018-11-06T11:41:03.173Z,62.34
2018-11-06T11:43:31.365Z,62.20
2018-11-06T11:45:59.500Z,62.07
2018-11-06T11:48:27.551Z,62.16
2018-11-06T11:50:55.637Z,62.08
2018-11-06T11:53:23.746Z,62.00
2018-11-06T11:55:51.828Z,61.96
2018-11-06T11:58:19.927Z,61.80
2018-11-06T12:00:48.013Z,61.84
2018-11-06T12:03:16.109Z,61.72
2018-11-06T12:05:44.194Z,61.63
2018-11-06T12:08:12.295Z,61.55
2018-11-06T12:10:40.392Z,61.56
2018-11-06T12:13:08.501Z,61.50
2018-11-06T12:15:36.580Z,61.39
2018-11-06T12:18:04.693Z,61.30
2018-11-06T12:20:32.772Z,61.27
2018-11-06T12:23:00.862Z,61.23
2018-11-06T12:25:29.060Z,61.06
2018-11-06T12:27:57.154Z,60.88
2018-11-06T12:30:25.230Z,60.83
2018-11-06T12:32:53.323Z,60.81
2018-11-06T12:35:21.478Z,60.91
2018-11-06T12:37:49.569Z,60.75
2018-11-06T12:40:17.643Z,60.74
2018-11-06T12:42:45.758Z,60.83
2018-11-06T12:45:15.329Z,60.88
2018-11-06T12:47:43.919Z,60.80
2018-11-06T12:50:12.251Z,60.76
2018-11-06T12:52:40.818Z,60.77
2018-11-06T12:55:10.283Z,60.46
2018-11-06T12:57:38.471Z,60.40
2018-11-06T13:00:09.699Z,60.36
2018-11-06T13:02:37.784Z,60.34
2018-11-06T13:05:06.470Z,60.21
2018-11-06T13:07:34.558Z,60.10
2018-11-06T13:10:02.893Z,60.19
2018-11-06T13:12:30.887Z,60.22
2018-11-06T13:14:59.322Z,60.23
2018-11-06T13:17:27.064Z,60.24
2018-11-06T13:19:55.155Z,60.07
2018-11-06T13:22:23.376Z,60.02
2018-11-06T13:24:51.829Z,59.97
2018-11-06T13:27:19.893Z,60.02
2018-11-06T13:29:48.453Z,60.02
2018-11-06T13:32:16.551Z,60.01
2018-11-06T13:34:44.631Z,59.85
2018-11-06T13:37:12.718Z,59.85
2018-11-06T13:39:40.835Z,59.73
2018-11-06T13:42:09.031Z,59.35
2018-11-06T13:44:37.209Z,59.28
2018-11-06T13:47:05.401Z,59.37
2018-11-06T13:49:33.516Z,59.49
2018-11-06T13:52:01.636Z,59.50
2018-11-06T13:54:29.717Z,59.51
2018-11-06T13:56:57.816Z,59.58
2018-11-06T13:59:25.915Z,59.51
2018-11-06T14:01:54.042Z,59.54
2018-11-06T14:04:22.337Z,59.59
2018-11-06T14:06:50.485Z,59.53
2018-11-06T14:09:19.073Z,59.58
2018-11-06T14:11:47.184Z,59.53
2018-11-06T14:14:15.279Z,59.50
2018-11-06T14:16:43.377Z,59.53
2018-11-06T14:19:11.667Z,59.31
2018-11-06T14:21:40.289Z,58.90
2018-11-06T14:24:08.555Z,58.97
2018-11-06T14:26:36.642Z,59.18
2018-11-06T14:29:04.729Z,59.10
2018-11-06T14:31:32.885Z,59.07
2018-11-06T14:34:01.329Z,59.06
2018-11-06T14:36:29.659Z,59.12
2018-11-06T14:38:58.002Z,59.00
2018-11-06T14:41:26.336Z,59.16
2018-11-06T14:43:54.414Z,59.22
2018-11-06T14:46:22.611Z,59.24
2018-11-06T14:48:50.951Z,59.29
2018-11-06T14:51:18.960Z,59.33
2018-11-06T14:53:47.057Z,59.39
2018-11-06T14:56:15.336Z,59.40
2018-11-06T14:58:43.735Z,59.41
2018-11-06T15:01:11.813Z,59.36
2018-11-06T15:03:39.904Z,59.40
2018-11-06T15:06:07.984Z,59.49
2018-11-06T15:08:36.196Z,59.57
2018-11-06T15:11:04.735Z,59.64
2018-11-06T15:13:32.854Z,59.64
2018-11-06T15:16:01.097Z,59.74
2018-11-06T15:18:29.212Z,59.81
2018-11-06T15:20:57.719Z,59.98
2018-11-06T15:23:25.742Z,59.99
2018-11-06T15:25:53.821Z,60.10
2018-11-06T15:28:22.170Z,60.24
2018-11-06T15:30:50.243Z,60.24
2018-11-06T15:33:18.378Z,60.25
2018-11-06T15:35:46.403Z,60.39
2018-11-06T15:38:14.509Z,60.80
2018-11-06T15:40:42.703Z,61.15
2018-11-06T15:43:10.771Z,61.33
2018-11-06T15:45:38.900Z,61.28
2018-11-06T15:48:06.990Z,61.19
2018-11-06T15:50:35.119Z,61.25
2018-11-06T15:53:03.206Z,61.67
2018-11-06T15:55:31.287Z,61.71
2018-11-06T15:57:59.379Z,61.90
2018-11-06T16:00:27.460Z,62.15
2018-11-06T16:02:55.688Z,62.59
2018-11-06T16:05:23.853Z,62.73
2018-11-06T16:07:51.934Z,62.79
2018-11-06T16:10:21.415Z,62.79
2018-11-06T16:12:49.502Z,62.99
2018-11-06T16:15:17.670Z,63.16
2018-11-06T16:17:45.816Z,63.23
2018-11-06T16:20:15.237Z,63.34
2018-11-06T16:22:43.614Z,63.45
2018-11-06T16:25:13.226Z,63.52
2018-11-06T16:27:41.703Z,63.60
2018-11-06T16:30:12.082Z,63.73
2018-11-06T16:32:40.287Z,63.85
2018-11-06T16:35:10.033Z,63.91
2018-11-06T16:37:38.394Z,63.96
2018-11-06T16:40:07.001Z,63.97
2018-11-06T16:42:35.119Z,63.99
2018-11-06T16:45:03.302Z,64.14
2018-11-06T16:47:31.466Z,64.17
2018-11-06T16:49:59.567Z,64.32
2018-11-06T16:52:27.655Z,64.46
2018-11-06T16:54:55.774Z,64.47
2018-11-06T16:57:23.855Z,64.46
2018-11-06T16:59:51.970Z,64.45
2018-11-06T17:02:20.084Z,64.47
2018-11-06T17:04:48.203Z,64.51
2018-11-06T17:07:16.302Z,64.70
2018-11-06T17:09:44.394Z,64.76
2018-11-06T17:12:12.494Z,64.83
2018-11-06T17:14:40.652Z,64.85
2018-11-06T17:17:08.774Z,65.00
2018-11-06T17:19:36.843Z,65.11
2018-11-06T17:22:05.115Z,65.16
2018-11-06T17:24:33.201Z,65.19
2018-11-06T17:27:01.307Z,65.21
2018-11-06T17:29:29.420Z,65.30
2018-11-06T17:31:57.532Z,65.35
2018-11-06T17:34:25.619Z,65.46
2018-11-06T17:36:53.885Z,65.64
2018-11-06T17:39:22.045Z,65.76
2018-11-06T17:41:50.131Z,65.83
2018-11-06T17:44:18.225Z,65.91
2018-11-06T17:46:46.322Z,66.02
2018-11-06T17:49:14.415Z,66.11
2018-11-06T17:51:42.509Z,66.14
2018-11-06T17:54:10.604Z,66.16
2018-11-06T17:56:38.705Z,66.15
2018-11-06T17:59:06.800Z,66.12
2018-11-06T18:01:34.898Z,66.23
2018-11-06T18:04:03.080Z,66.35
2018-11-06T18:06:31.095Z,66.41
2018-11-06T18:08:59.198Z,66.42
2018-11-06T18:11:27.282Z,66.41
2018-11-06T18:13:55.381Z,66.35
2018-11-06T18:16:23.462Z,66.32
2018-11-06T18:18:51.564Z,66.28
2018-11-06T18:21:19.651Z,66.30
2018-11-06T18:23:47.738Z,66.32
2018-11-06T18:26:15.817Z,66.34
2018-11-06T18:28:44.010Z,66.30
2018-11-06T18:31:12.088Z,66.33
2018-11-06T18:33:40.176Z,66.42
2018-11-06T18:36:08.250Z,66.62
2018-11-06T18:38:36.336Z,66.76
2018-11-06T18:41:04.595Z,66.81
2018-11-06T18:43:32.683Z,66.81
2018-11-06T18:46:00.763Z,66.77
2018-11-06T18:48:28.851Z,66.69
2018-11-06T18:50:56.932Z,66.70
2018-11-06T18:53:25.026Z,66.76
2018-11-06T18:55:53.098Z,66.84
2018-11-06T18:58:22.105Z,66.93
2018-11-06T19:00:50.168Z,66.94
2018-11-06T19:03:18.253Z,66.89
2018-11-06T19:05:46.329Z,66.88
2018-11-06T19:08:14.410Z,66.81
2018-11-06T19:10:42.522Z,66.72
2018-11-06T19:13:10.572Z,66.70
2018-11-06T19:15:38.668Z,66.71
2018-11-06T19:18:06.745Z,66.77
2018-11-06T19:20:34.848Z,66.70
2018-11-06T19:23:02.941Z,66.67
2018-11-06T19:25:31.033Z,66.64
2018-11-06T19:27:59.126Z,66.64
2018-11-06T19:30:27.233Z,66.66
2018-11-06T19:32:55.326Z,66.67
2018-11-06T19:35:23.421Z,66.67
2018-11-06T19:37:51.511Z,66.64
2018-11-06T19:40:19.656Z,66.64
2018-11-06T19:42:48.338Z,66.54
2018-11-06T19:45:16.499Z,66.46
2018-11-06T19:47:44.688Z,66.45
2018-11-06T19:50:17.483Z,66.48
2018-11-06T19:52:45.627Z,66.58
2018-11-06T19:55:14.669Z,66.61
2018-11-06T19:57:42.924Z,66.66
2018-11-06T20:00:15.189Z,66.65
2018-11-06T20:02:44.492Z,66.57
2018-11-06T20:05:12.679Z,66.47
2018-11-06T20:07:41.656Z,66.46
2018-11-06T20:10:11.390Z,66.44
2018-11-06T20:12:39.900Z,66.44
2018-11-06T20:15:09.678Z,66.50
2018-11-06T20:17:38.009Z,66.47
2018-11-06T20:20:08.578Z,66.46
2018-11-06T20:22:36.695Z,66.51
2018-11-06T20:25:05.033Z,66.49
2018-11-06T20:27:33.147Z,66.51
2018-11-06T20:30:01.396Z,66.52
2018-11-06T20:32:29.342Z,66.48
2018-11-06T20:34:57.427Z,66.32
2018-11-06T20:37:25.874Z,66.27
2018-11-06T20:39:53.926Z,66.14
2018-11-06T20:42:22.035Z,66.05
2018-11-06T20:44:50.113Z,65.96
2018-11-06T20:47:18.304Z,66.13
2018-11-06T20:49:46.472Z,66.06
2018-11-06T20:52:14.587Z,66.07
2018-11-06T20:54:42.720Z,66.13
2018-11-06T20:57:10.785Z,66.22
2018-11-06T20:59:38.871Z,66.12
2018-11-06T21:02:07.090Z,66.06
2018-11-06T21:04:35.166Z,65.99
2018-11-06T21:07:03.495Z,65.98
2018-11-06T21:09:31.501Z,66.03
2018-11-06T21:11:59.953Z,66.05
2018-11-06T21:14:28.002Z,66.11
2018-11-06T21:16:56.172Z,66.08
2018-11-06T21:19:24.195Z,66.11
2018-11-06T21:21:52.290Z,66.08
2018-11-06T21:24:20.388Z,65.99
2018-11-06T21:26:48.626Z,65.89
2018-11-06T21:29:16.594Z,65.84
2018-11-06T21:31:44.694Z,65.79
2018-11-06T21:34:12.821Z,65.82
2018-11-06T21:36:40.907Z,65.84
2018-11-06T21:39:09.846Z,65.78
2018-11-06T21:41:37.849Z,65.74
2018-11-06T21:44:05.987Z,65.65
2018-11-06T21:46:34.062Z,65.83
2018-11-06T21:49:02.384Z,65.94
2018-11-06T21:51:30.633Z,65.85
2018-11-06T21:53:58.765Z,65.84
2018-11-06T21:56:26.868Z,65.89
2018-11-06T21:58:54.942Z,65.93
2018-11-06T22:01:23.022Z,65.96
2018-11-06T22:03:51.139Z,65.89
2018-11-06T22:06:19.245Z,65.82
2018-11-06T22:08:47.357Z,65.80
2018-11-06T22:11:15.432Z,65.82
2018-11-06T22:13:43.514Z,65.82
2018-11-06T22:16:11.594Z,65.83
2018-11-06T22:18:39.682Z,65.81
2018-11-06T22:21:07.777Z,65.72
2018-11-06T22:23:35.878Z,65.51
2018-11-06T22:26:03.974Z,65.56
2018-11-06T22:28:32.073Z,65.62
2018-11-06T22:31:00.160Z,65.76
2018-11-06T22:33:28.268Z,65.86
2018-11-06T22:35:56.356Z,65.96
2018-11-06T22:38:24.453Z,66.02
2018-11-06T22:40:52.550Z,66.06
2018-11-06T22:43:20.669Z,65.98
2018-11-06T22:45:48.777Z,65.93
2018-11-06T22:48:16.862Z,65.92
2018-11-06T22:50:44.973Z,65.71
2018-11-06T22:53:13.137Z,65.64
2018-11-06T22:55:41.185Z,65.52
2018-11-06T22:58:09.277Z,65.74
2018-11-06T23:00:42.731Z,65.81
2018-11-06T23:03:12.313Z,65.93
2018-11-06T23:05:40.662Z,66.09
2018-11-06T23:08:14.038Z,66.05
2018-11-06T23:10:42.194Z,65.92
2018-11-06T23:13:10.753Z,66.00
2018-11-06T23:15:38.922Z,66.02
2018-11-06T23:18:07.029Z,65.98
2018-11-06T23:20:35.187Z,65.98
2018-11-06T23:23:03.307Z,65.93
2018-11-06T23:25:31.394Z,65.97
2018-11-06T23:27:59.586Z,65.94
2018-11-06T23:30:27.687Z,65.95
2018-11-06T23:32:55.761Z,65.92
2018-11-06T23:35:23.846Z,65.75
2018-11-06T23:37:51.921Z,65.61
2018-11-06T23:40:20.034Z,65.66
2018-11-06T23:42:48.109Z,65.71
2018-11-06T23:45:16.222Z,65.81
2018-11-06T23:47:44.274Z,65.86
2018-11-06T23:50:12.354Z,65.87
2018-11-06T23:52:40.872Z,65.79
2018-11-06T23:55:09.459Z,65.91
2018-11-06T23:57:37.518Z,65.82
